Time;durP1;ratioP1;P1;durP2;ratioP2;P2;SDS_P1;SDS_P2;PMS_P1;PMS_P2;Temp;Humidity;BMP_temperature;BMP_pressure;BME280_temperature;BME280_humidity;BME280_pressure;Samples;Min_cycle;Max_cycle;Signal;HPM_P1;HPM_P2
2024/01/04 00:00:40;;;;;;;2.03;0.73;;;9.30;57.20;;;;;;5033293;28;20557;-81
2024/01/04 00:03:07;;;;;;;4.82;0.82;;;9.40;56.90;;;;;;5033847;28;20278;-81
2024/01/04 00:05:34;;;;;;;2.58;0.90;;;9.30;56.70;;;;;;5014003;28;20274;-82
2024/01/04 00:08:01;;;;;;;2.33;0.73;;;9.40;56.40;;;;;;5013510;28;20196;-82
2024/01/04 00:10:28;;;;;;;1.90;0.80;;;9.40;56.50;;;;;;5013821;28;20274;-81
2024/01/04 00:12:55;;;;;;;2.50;0.80;;;9.40;56.50;;;;;;5024650;28;20275;-81
2024/01/04 00:15:22;;;;;;;1.80;0.60;;;9.30;56.20;;;;;;5033721;28;20227;-81
2024/01/04 00:17:50;;;;;;;3.30;1.10;;;9.30;56.30;;;;;;5033242;28;20196;-81
2024/01/04 00:20:17;;;;;;;2.00;0.90;;;9.30;56.10;;;;;;5033636;28;21419;-81
2024/01/04 00:22:44;;;;;;;1.80;0.70;;;9.30;55.70;;;;;;5033920;28;20215;-81
2024/01/04 00:25:11;;;;;;;4.00;0.88;;;9.30;55.50;;;;;;5033414;28;20557;-81
2024/01/04 00:27:38;;;;;;;1.92;0.85;;;9.20;55.50;;;;;;5033761;28;20191;-81
2024/01/04 00:30:06;;;;;;;2.10;1.00;;;9.30;55.20;;;;;;5033482;28;20191;-81
2024/01/04 00:32:32;;;;;;;2.60;0.90;;;9.20;55.20;;;;;;5033767;28;20242;-81
2024/01/04 00:35:01;;;;;;;2.45;0.80;;;9.20;55.20;;;;;;5033311;28;20337;-82
2024/01/04 00:37:28;;;;;;;3.70;0.80;;;9.30;55.30;;;;;;5033748;28;20183;-81
2024/01/04 00:39:54;;;;;;;2.42;0.80;;;9.20;55.40;;;;;;5033391;28;20230;-82
2024/01/04 00:42:21;;;;;;;2.28;0.82;;;9.30;55.70;;;;;;5033527;28;20298;-81
2024/01/04 00:44:49;;;;;;;1.90;0.70;;;9.30;55.80;;;;;;5033616;28;20278;-82
2024/01/04 00:47:16;;;;;;;1.80;0.70;;;9.30;56.00;;;;;;5033088;28;20328;-81
2024/01/04 00:49:43;;;;;;;5.60;3.80;;;9.30;56.20;;;;;;5033045;28;20713;-80
2024/01/04 00:52:10;;;;;;;1.80;0.80;;;9.30;56.20;;;;;;5033340;28;20278;-81
2024/01/04 00:54:37;;;;;;;2.40;0.70;;;9.30;56.40;;;;;;5033513;28;20650;-81
2024/01/04 00:57:05;;;;;;;1.70;0.70;;;9.30;56.40;;;;;;5032973;28;20226;-81
2024/01/04 00:59:32;;;;;;;1.75;0.75;;;9.30;56.90;;;;;;5033150;28;20229;-80
2024/01/04 01:01:59;;;;;;;2.03;0.93;;;9.30;57.30;;;;;;5033233;28;20306;-80
2024/01/04 01:04:26;;;;;;;1.80;0.70;;;9.30;57.90;;;;;;5032868;28;20247;-80
2024/01/04 01:06:53;;;;;;;1.70;0.60;;;9.30;58.40;;;;;;5033252;28;20203;-80
2024/01/04 01:09:21;;;;;;;1.80;0.80;;;9.30;58.80;;;;;;5033247;28;20283;-80
2024/01/04 01:11:48;;;;;;;3.15;0.93;;;9.20;59.20;;;;;;5033011;28;20274;-81
2024/01/04 01:14:15;;;;;;;2.72;0.75;;;9.20;59.30;;;;;;5033183;28;20219;-81
2024/01/04 01:16:42;;;;;;;1.98;0.70;;;9.20;59.60;;;;;;5032853;28;20284;-80
2024/01/04 01:19:09;;;;;;;1.83;0.90;;;9.10;59.70;;;;;;5030772;28;20274;-81
2024/01/04 01:21:36;;;;;;;2.35;0.80;;;9.10;60.10;;;;;;5032651;28;20250;-81
2024/01/04 01:24:03;;;;;;;2.17;0.70;;;9.10;60.40;;;;;;5032768;28;20191;-81
2024/01/04 01:26:31;;;;;;;1.98;0.73;;;9.00;60.40;;;;;;5032685;28;20708;-81
2024/01/04 01:28:59;;;;;;;2.17;0.80;;;9.00;60.50;;;;;;5032541;28;20286;-80
2024/01/04 01:31:26;;;;;;;4.40;0.80;;;8.90;60.70;;;;;;5031892;28;20214;-81
2024/01/04 01:33:53;;;;;;;1.92;0.70;;;8.90;60.50;;;;;;5033201;28;20246;-81
2024/01/04 01:36:19;;;;;;;3.45;0.70;;;8.90;60.30;;;;;;5032974;28;20223;-81
2024/01/04 01:38:47;;;;;;;2.53;0.93;;;8.90;60.50;;;;;;5032671;28;20274;-81
2024/01/04 01:41:14;;;;;;;2.00;0.70;;;8.80;60.20;;;;;;5032535;28;20223;-81
2024/01/04 01:43:42;;;;;;;6.45;0.80;;;8.80;60.30;;;;;;5032937;28;20278;-81
2024/01/04 01:46:09;;;;;;;4.90;0.90;;;8.80;60.50;;;;;;5032445;28;20318;-82
2024/01/04 01:48:36;;;;;;;2.15;0.80;;;8.80;60.70;;;;;;5032886;28;20272;-81
2024/01/04 01:51:03;;;;;;;3.15;0.90;;;8.80;60.50;;;;;;5032328;28;20242;-81
2024/01/04 01:53:30;;;;;;;2.70;1.00;;;8.80;60.50;;;;;;5032211;28;20226;-81
2024/01/04 01:55:57;;;;;;;6.13;2.58;;;8.80;59.80;;;;;;5032552;28;20682;-81
2024/01/04 01:58:24;;;;;;;1.95;0.80;;;8.80;59.60;;;;;;5032495;28;20282;-80
2024/01/04 02:00:52;;;;;;;1.80;0.70;;;8.70;59.50;;;;;;5032898;28;20274;-81
2024/01/04 02:03:21;;;;;;;2.90;0.95;;;8.70;59.60;;;;;;5032554;28;20570;-81
2024/01/04 02:05:47;;;;;;;2.55;0.90;;;8.70;59.50;;;;;;5035754;28;20180;-81
2024/01/04 02:08:14;;;;;;;4.68;0.73;;;8.70;59.30;;;;;;5036505;28;20297;-81
2024/01/04 02:10:41;;;;;;;3.13;1.00;;;8.70;59.10;;;;;;5036208;28;20282;-81
2024/01/04 02:13:09;;;;;;;2.10;0.77;;;8.70;58.90;;;;;;5036174;28;20694;-80
2024/01/04 02:15:36;;;;;;;1.70;0.70;;;8.70;58.60;;;;;;5036551;28;20200;-81
2024/01/04 02:18:04;;;;;;;1.70;0.60;;;8.70;58.20;;;;;;5036339;28;20290;-80
2024/01/04 02:20:31;;;;;;;2.45;0.90;;;8.70;58.20;;;;;;5035983;28;20191;-80
2024/01/04 02:23:00;;;;;;;2.63;0.75;;;8.80;57.60;;;;;;5035498;28;20280;-81
2024/01/04 02:25:27;;;;;;;1.88;0.70;;;8.70;57.60;;;;;;5036320;28;20192;-81
2024/01/04 02:27:54;;;;;;;2.22;0.80;;;8.70;57.60;;;;;;5035393;28;20195;-80
2024/01/04 02:30:20;;;;;;;3.05;1.00;;;8.80;57.40;;;;;;5034794;28;20271;-81
2024/01/04 02:32:48;;;;;;;3.25;0.80;;;8.80;57.20;;;;;;5034856;28;20278;-80
2024/01/04 02:35:15;;;;;;;1.90;0.70;;;8.80;57.20;;;;;;5036004;28;20282;-80
2024/01/04 02:37:41;;;;;;;3.03;0.93;;;8.80;57.10;;;;;;5035616;28;20286;-80
2024/01/04 02:40:11;;;;;;;2.00;0.90;;;8.80;57.20;;;;;;5035774;28;20603;-80
2024/01/04 02:42:38;;;;;;;2.55;0.90;;;8.80;57.40;;;;;;5035844;28;20212;-80
2024/01/04 02:45:06;;;;;;;1.80;0.70;;;8.80;57.40;;;;;;5035779;28;20286;-81
2024/01/04 02:47:34;;;;;;;1.80;0.77;;;8.80;57.40;;;;;;5035730;28;20255;-80
2024/01/04 02:50:01;;;;;;;2.17;0.60;;;8.90;57.50;;;;;;5035580;28;20386;-81
2024/01/04 02:52:28;;;;;;;2.75;1.00;;;8.90;57.80;;;;;;5035154;28;20223;-82
2024/01/04 02:54:55;;;;;;;1.70;0.70;;;8.90;58.10;;;;;;5035544;28;20290;-82
2024/01/04 02:57:23;;;;;;;5.05;1.00;;;8.90;58.30;;;;;;5035385;28;20286;-82
2024/01/04 02:59:50;;;;;;;1.70;0.60;;;9.00;58.30;;;;;;5033819;28;20270;-83
2024/01/04 03:02:17;;;;;;;2.35;0.75;;;9.00;58.10;;;;;;5035125;28;20302;-82
2024/01/04 03:04:44;;;;;;;2.17;0.80;;;9.00;58.20;;;;;;5035267;28;20282;-82
2024/01/04 03:07:11;;;;;;;1.70;0.70;;;8.90;58.30;;;;;;5035490;28;20577;-81
2024/01/04 03:09:38;;;;;;;4.05;1.00;;;9.00;58.00;;;;;;5035129;28;20187;-81
2024/01/04 03:12:06;;;;;;;2.10;0.60;;;9.00;57.70;;;;;;5035283;28;20286;-81
2024/01/04 03:14:34;;;;;;;2.00;1.02;;;9.00;57.50;;;;;;5034626;28;20278;-82
2024/01/04 03:17:01;;;;;;;2.33;0.80;;;9.00;57.50;;;;;;5033848;28;20275;-82
2024/01/04 03:19:28;;;;;;;2.00;0.80;;;9.00;57.40;;;;;;5035269;28;20196;-81
2024/01/04 03:21:55;;;;;;;2.05;0.80;;;9.00;57.30;;;;;;5035156;28;20424;-82
2024/01/04 03:24:22;;;;;;;2.70;0.80;;;9.00;57.10;;;;;;5034789;28;20713;-83
2024/01/04 03:26:48;;;;;;;2.83;0.77;;;9.00;57.20;;;;;;5034411;28;20277;-82
2024/01/04 03:29:15;;;;;;;2.40;0.98;;;8.90;57.20;;;;;;5035060;28;20278;-81
2024/01/04 03:31:44;;;;;;;3.78;0.90;;;8.90;57.20;;;;;;5035089;28;20598;-81
2024/01/04 03:34:10;;;;;;;7.15;0.90;;;8.90;56.90;;;;;;5034653;28;20195;-82
2024/01/04 03:36:37;;;;;;;2.65;0.73;;;8.90;57.00;;;;;;5034855;28;20223;-82
2024/01/04 03:39:05;;;;;;;1.92;0.70;;;8.90;56.90;;;;;;5034209;28;20270;-81
2024/01/04 03:41:31;;;;;;;2.83;0.70;;;9.00;57.40;;;;;;5034707;28;20218;-81
2024/01/04 03:43:58;;;;;;;2.00;0.82;;;9.00;56.50;;;;;;5034742;28;20303;-80
2024/01/04 03:46:25;;;;;;;2.83;1.20;;;9.00;56.20;;;;;;5034138;28;20699;-81
2024/01/04 03:48:54;;;;;;;3.13;0.88;;;9.00;56.10;;;;;;5034623;28;20476;-81
2024/01/04 03:51:20;;;;;;;4.60;1.00;;;9.00;55.70;;;;;;5034221;28;20270;-81
2024/01/04 03:53:48;;;;;;;2.00;0.70;;;9.00;55.80;;;;;;5034184;28;20282;-81
2024/01/04 03:56:14;;;;;;;1.80;0.70;;;9.00;55.80;;;;;;5034559;28;20195;-80
2024/01/04 03:58:41;;;;;;;4.57;1.10;;;9.00;55.50;;;;;;5034096;28;20286;-81
2024/01/04 04:01:09;;;;;;;2.10;1.00;;;9.00;55.40;;;;;;5034063;28;20290;-81
2024/01/04 04:03:35;;;;;;;1.98;0.68;;;9.00;55.30;;;;;;5034245;28;20219;-81
2024/01/04 04:06:07;;;;;;;2.83;0.88;;;9.00;55.10;;;;;;5033710;28;20279;-81
2024/01/04 04:08:35;;;;;;;4.65;0.80;;;9.00;55.00;;;;;;5034095;28;20211;-80
2024/01/04 04:11:02;;;;;;;1.90;0.70;;;9.10;54.60;;;;;;5033739;28;20191;-81
2024/01/04 04:13:29;;;;;;;2.08;0.70;;;9.20;54.50;;;;;;5034270;28;20239;-81
2024/01/04 04:15:55;;;;;;;2.75;0.80;;;9.20;54.50;;;;;;5034093;28;20594;-81
2024/01/04 04:18:22;;;;;;;1.73;0.80;;;9.20;54.60;;;;;;5034069;28;20202;-81
2024/01/04 04:20:49;;;;;;;2.13;0.82;;;9.20;54.40;;;;;;5033877;28;20219;-82
2024/01/04 04:23:18;;;;;;;2.05;0.77;;;9.30;54.50;;;;;;5033596;28;20302;-81
2024/01/04 04:25:44;;;;;;;1.98;0.70;;;9.30;54.60;;;;;;5033629;28;20282;-82
2024/01/04 04:28:13;;;;;;;2.55;0.90;;;9.30;54.70;;;;;;5032527;28;20294;-81
2024/01/04 04:30:40;;;;;;;1.70;0.68;;;9.30;54.80;;;;;;5032246;28;20223;-81
2024/01/04 04:33:07;;;;;;;3.55;0.90;;;9.30;54.90;;;;;;5033746;28;20374;-81
2024/01/04 04:35:34;;;;;;;3.88;0.77;;;9.30;55.10;;;;;;5033830;28;20274;-82
2024/01/04 04:38:01;;;;;;;2.47;0.70;;;9.30;55.40;;;;;;5033360;28;20237;-80
2024/01/04 04:40:29;;;;;;;3.17;1.00;;;9.30;55.40;;;;;;5033261;28;21565;-81
2024/01/04 04:42:56;;;;;;;2.05;0.60;;;9.20;55.70;;;;;;5033232;28;20309;-81
2024/01/04 04:45:23;;;;;;;2.67;0.75;;;9.10;55.90;;;;;;5033690;28;20615;-80
2024/01/04 04:47:50;;;;;;;2.08;0.88;;;9.10;56.30;;;;;;5033829;28;20314;-80
2024/01/04 04:50:17;;;;;;;2.60;0.70;;;9.10;56.30;;;;;;5033594;28;20218;-80
2024/01/04 04:52:44;;;;;;;2.67;0.75;;;9.10;56.50;;;;;;5033303;28;20257;-80
2024/01/04 04:55:12;;;;;;;2.00;0.75;;;9.00;56.50;;;;;;5033111;28;20191;-81
2024/01/04 04:57:41;;;;;;;2.00;0.60;;;9.00;56.80;;;;;;5033387;28;20191;-81
2024/01/04 05:00:09;;;;;;;2.25;0.82;;;9.00;56.90;;;;;;5032112;28;20238;-82
2024/01/04 05:02:36;;;;;;;5.15;1.05;;;8.90;57.10;;;;;;5033271;28;20231;-81
2024/01/04 05:05:03;;;;;;;3.40;0.65;;;8.90;57.00;;;;;;5033096;28;20275;-82
2024/01/04 05:07:29;;;;;;;2.05;0.77;;;9.00;57.00;;;;;;5032975;28;20237;-81
2024/01/04 05:09:56;;;;;;;1.90;0.75;;;8.90;57.10;;;;;;5032924;28;20286;-80
2024/01/04 05:12:23;;;;;;;2.17;0.80;;;8.90;57.20;;;;;;5032413;28;20676;-81
2024/01/04 05:14:51;;;;;;;2.00;0.75;;;9.00;57.30;;;;;;5033207;28;20278;-80
2024/01/04 05:17:18;;;;;;;1.60;0.60;;;9.00;57.30;;;;;;5033053;28;20278;-81
2024/01/04 05:19:45;;;;;;;2.10;0.85;;;9.00;57.50;;;;;;5033308;28;20234;-80
2024/01/04 05:22:12;;;;;;;2.58;0.70;;;8.90;57.50;;;;;;5033066;28;20226;-80
2024/01/04 05:24:39;;;;;;;2.05;0.68;;;8.90;57.70;;;;;;5032670;28;20266;-80
2024/01/04 05:27:06;;;;;;;1.80;0.80;;;8.90;57.90;;;;;;5033086;28;20202;-82
2024/01/04 05:29:33;;;;;;;1.90;0.75;;;8.90;58.20;;;;;;5032683;28;20713;-82
2024/01/04 05:32:02;;;;;;;1.88;0.60;;;8.90;58.60;;;;;;5032475;28;20233;-82
2024/01/04 05:34:32;;;;;;;2.78;0.70;;;8.90;58.80;;;;;;5032910;28;20233;-82
2024/01/04 05:36:59;;;;;;;2.33;0.60;;;8.90;59.10;;;;;;5032981;28;20284;-82
2024/01/04 05:39:26;;;;;;;1.70;0.70;;;8.90;59.40;;;;;;5034607;28;20282;-83
2024/01/04 05:41:53;;;;;;;1.70;0.70;;;8.80;59.50;;;;;;5036364;28;20598;-82
2024/01/04 05:44:20;;;;;;;3.58;0.77;;;8.70;59.90;;;;;;5036221;28;20302;-82
2024/01/04 05:46:47;;;;;;;3.17;0.75;;;8.70;60.30;;;;;;5036601;28;20390;-82
2024/01/04 05:49:15;;;;;;;1.70;0.70;;;8.60;60.70;;;;;;5036283;28;20218;-82
2024/01/04 05:51:42;;;;;;;1.80;0.70;;;8.60;61.10;;;;;;5036814;28;20231;-81
2024/01/04 05:54:09;;;;;;;1.70;0.70;;;8.50;61.50;;;;;;5036451;28;20714;-82
2024/01/04 05:56:36;;;;;;;1.80;0.80;;;8.50;61.90;;;;;;5036766;28;20298;-81
2024/01/04 05:59:03;;;;;;;1.73;0.70;;;8.50;62.10;;;;;;5035876;28;20578;-82
2024/01/04 06:01:30;;;;;;;1.90;0.70;;;8.50;62.10;;;;;;5036772;28;20227;-81
2024/01/04 06:03:58;;;;;;;2.00;0.73;;;8.40;62.40;;;;;;5036066;28;20292;-81
2024/01/04 06:06:27;;;;;;;1.80;0.60;;;8.40;62.70;;;;;;5036282;28;20258;-81
2024/01/04 06:08:54;;;;;;;2.00;0.80;;;8.40;63.00;;;;;;5036215;28;20237;-81
2024/01/04 06:11:21;;;;;;;3.10;0.73;;;8.30;63.20;;;;;;5036273;28;20282;-81
2024/01/04 06:13:48;;;;;;;3.25;0.77;;;8.30;63.60;;;;;;5035940;28;20358;-81
2024/01/04 06:16:15;;;;;;;3.25;0.80;;;8.30;63.90;;;;;;5036419;28;20191;-81
2024/01/04 06:18:42;;;;;;;4.30;0.70;;;8.20;64.30;;;;;;5036060;28;20219;-83
2024/01/04 06:21:08;;;;;;;2.65;0.85;;;8.10;64.50;;;;;;5036052;28;20253;-82
2024/01/04 06:23:37;;;;;;;1.80;0.70;;;8.10;64.80;;;;;;5035957;28;20241;-84
2024/01/04 06:26:04;;;;;;;3.10;0.85;;;8.10;65.90;;;;;;5035884;28;20196;-83
2024/01/04 06:28:31;;;;;;;1.92;0.80;;;8.10;65.20;;;;;;5035950;28;20245;-84
2024/01/04 06:30:58;;;;;;;3.58;1.02;;;8.10;65.50;;;;;;5036367;28;20253;-83
2024/01/04 06:33:26;;;;;;;2.65;0.73;;;8.10;65.60;;;;;;5035773;28;20205;-83
2024/01/04 06:35:53;;;;;;;4.28;1.23;;;8.10;65.60;;;;;;5035987;28;20191;-84
2024/01/04 06:38:19;;;;;;;5.10;1.20;;;8.10;65.70;;;;;;5035643;28;20275;-84
2024/01/04 06:40:48;;;;;;;2.40;0.82;;;8.10;65.80;;;;;;5035936;28;20253;-84
2024/01/04 06:43:15;;;;;;;3.13;0.80;;;8.10;65.80;;;;;;5035833;28;20310;-83
2024/01/04 06:45:42;;;;;;;3.95;0.90;;;8.00;66.00;;;;;;5035843;28;20632;-83
2024/01/04 06:48:09;;;;;;;1.83;0.85;;;8.00;66.20;;;;;;5035308;28;20310;-83
2024/01/04 06:50:37;;;;;;;1.80;0.90;;;8.00;66.10;;;;;;5034933;28;20257;-83
2024/01/04 06:53:04;;;;;;;2.70;0.80;;;8.00;66.10;;;;;;5035702;28;20282;-84
2024/01/04 06:55:31;;;;;;;2.63;0.80;;;8.00;66.00;;;;;;5035767;28;20249;-83
2024/01/04 06:58:00;;;;;;;2.80;0.70;;;8.00;66.10;;;;;;5035440;28;20195;-84
2024/01/04 07:00:27;;;;;;;3.83;0.98;;;8.10;65.80;;;;;;5035114;28;20279;-85
2024/01/04 07:02:53;;;;;;;2.38;0.68;;;8.10;65.90;;;;;;5035708;28;20222;-83
2024/01/04 07:05:20;;;;;;;2.10;0.80;;;8.10;66.00;;;;;;5035394;28;20292;-83
2024/01/04 07:07:47;;;;;;;2.33;0.80;;;8.10;65.80;;;;;;5033941;28;20183;-83
2024/01/04 07:10:14;;;;;;;2.05;0.75;;;8.10;65.90;;;;;;5033004;28;20290;-82
2024/01/04 07:12:43;;;;;;;2.00;0.73;;;8.10;65.80;;;;;;5033799;28;20192;-83
2024/01/04 07:15:11;;;;;;;1.80;0.70;;;8.10;65.20;;;;;;5034519;28;20278;-82
2024/01/04 07:17:38;;;;;;;2.00;0.80;;;8.20;64.50;;;;;;5033140;28;20246;-82
2024/01/04 07:20:07;;;;;;;2.22;0.80;;;8.30;64.40;;;;;;5034710;28;20257;-82
2024/01/04 07:22:34;;;;;;;4.20;0.90;;;8.20;64.10;;;;;;5033802;28;20650;-82
2024/01/04 07:25:02;;;;;;;2.25;1.15;;;8.30;64.20;;;;;;5033914;28;20238;-83
2024/01/04 07:27:32;;;;;;;2.50;0.90;;;8.30;63.80;;;;;;5034150;28;20278;-83
2024/01/04 07:29:59;;;;;;;3.08;0.88;;;8.30;63.30;;;;;;5033708;28;20271;-82
2024/01/04 07:32:45;;;;;;;3.05;0.80;;;8.30;62.90;;;;;;5017613;28;20187;-84
2024/01/04 07:35:16;;;;;;;7.28;1.13;;;8.40;62.60;;;;;;5031679;28;20183;-83
2024/01/04 07:38:01;;;;;;;5.50;1.13;;;8.40;62.50;;;;;;5033928;28;20180;-83
2024/01/04 07:40:28;;;;;;;2.75;0.80;;;8.40;62.10;;;;;;5027167;28;20238;-85
2024/01/04 07:42:56;;;;;;;2.40;0.88;;;8.40;62.00;;;;;;5028879;28;20199;-83
2024/01/04 07:45:24;;;;;;;3.00;1.00;;;8.40;61.80;;;;;;5032513;28;20230;-82
2024/01/04 07:47:52;;;;;;;2.20;1.00;;;8.50;61.50;;;;;;5033726;28;20570;-83
2024/01/04 07:50:24;;;;;;;1.90;0.73;;;8.50;61.00;;;;;;5032095;28;20195;-83
2024/01/04 07:52:56;;;;;;;4.07;1.00;;;8.60;60.90;;;;;;5032603;28;20594;-83
2024/01/04 07:55:28;;;;;;;6.85;1.08;;;8.70;60.70;;;;;;5032632;28;20203;-84
2024/01/04 07:57:55;;;;;;;2.00;0.70;;;8.80;60.30;;;;;;5032717;28;20180;-83
2024/01/04 08:00:24;;;;;;;2.85;0.88;;;8.90;59.90;;;;;;5033079;28;20286;-82
2024/01/04 08:02:52;;;;;;;5.05;1.33;;;9.00;59.70;;;;;;5031914;28;20187;-83
2024/01/04 08:05:20;;;;;;;3.72;0.90;;;9.00;59.40;;;;;;5033006;28;20289;-82
2024/01/04 08:07:47;;;;;;;5.18;1.38;;;9.00;58.80;;;;;;5033441;28;20282;-83
2024/01/04 08:10:14;;;;;;;2.70;0.90;;;9.10;58.40;;;;;;5033480;28;20188;-82
2024/01/04 08:12:42;;;;;;;2.70;1.10;;;9.20;57.90;;;;;;5032619;28;20655;-83
2024/01/04 08:15:10;;;;;;;2.97;1.00;;;9.20;57.60;;;;;;5033047;28;20668;-82
2024/01/04 08:17:37;;;;;;;1.90;0.80;;;9.20;57.60;;;;;;5033123;28;20658;-82
2024/01/04 08:20:07;;;;;;;4.93;1.10;;;9.20;57.50;;;;;;5032958;28;20184;-83
2024/01/04 08:22:34;;;;;;;4.85;1.10;;;9.20;57.60;;;;;;5032474;28;20180;-82
2024/01/04 08:25:01;;;;;;;4.30;1.67;;;9.10;57.50;;;;;;5033087;28;20306;-82
2024/01/04 08:27:27;;;;;;;5.60;1.13;;;9.20;57.40;;;;;;5032856;28;20221;-82
2024/01/04 08:29:54;;;;;;;2.25;1.00;;;9.10;57.20;;;;;;5029895;28;20278;-83
2024/01/04 08:32:21;;;;;;;6.47;1.02;;;9.20;57.40;;;;;;5032346;28;20219;-83
2024/01/04 08:34:48;;;;;;;5.75;1.40;;;9.20;56.80;;;;;;5022337;28;20302;-83
2024/01/04 08:37:18;;;;;;;4.57;1.10;;;9.20;56.60;;;;;;5026171;28;20191;-83
2024/01/04 08:39:46;;;;;;;4.55;1.50;;;9.30;56.70;;;;;;5031847;28;20195;-84
2024/01/04 08:42:13;;;;;;;4.57;1.48;;;9.20;56.40;;;;;;5031109;28;20602;-82
2024/01/04 08:44:41;;;;;;;4.25;0.90;;;9.20;56.40;;;;;;5024223;28;20219;-80
2024/01/04 08:47:08;;;;;;;4.80;1.15;;;9.20;56.40;;;;;;5032010;28;20247;-80
2024/01/04 08:49:36;;;;;;;3.25;1.38;;;9.20;56.40;;;;;;5032125;28;20261;-81
2024/01/04 08:52:14;;;;;;;3.85;1.38;;;9.20;56.40;;;;;;5023064;28;20528;-82
2024/01/04 08:54:43;;;;;;;2.55;1.10;;;9.30;56.30;;;;;;5015287;28;20206;-82
2024/01/04 08:57:15;;;;;;;3.45;1.20;;;9.50;56.00;;;;;;5032316;28;20196;-81
2024/01/04 08:59:52;;;;;;;2.15;0.90;;;9.60;55.80;;;;;;5031937;28;20245;-81
2024/01/04 09:02:20;;;;;;;3.70;1.63;;;9.70;55.60;;;;;;5031161;28;20183;-82
2024/01/04 09:04:48;;;;;;;2.38;1.10;;;9.90;55.10;;;;;;4999110;28;20230;-82
2024/01/04 09:07:18;;;;;;;4.13;1.05;;;10.10;53.80;;;;;;5025131;28;20187;-84
2024/01/04 09:09:46;;;;;;;6.72;1.85;;;10.20;53.60;;;;;;5030688;28;20191;-80
2024/01/04 09:12:15;;;;;;;4.07;1.13;;;10.30;53.20;;;;;;5029888;28;20230;-89
2024/01/04 09:14:42;;;;;;;2.60;1.10;;;10.50;52.70;;;;;;5025562;28;20195;-88
2024/01/04 09:17:09;;;;;;;4.43;1.30;;;10.80;52.40;;;;;;5030744;28;20621;-83
2024/01/04 09:19:36;;;;;;;2.30;0.95;;;10.90;51.90;;;;;;5024753;28;20192;-83
2024/01/04 09:22:04;;;;;;;3.25;0.82;;;11.10;51.40;;;;;;5030474;28;20183;-82
2024/01/04 09:24:33;;;;;;;4.50;1.27;;;11.10;50.60;;;;;;5020225;28;20217;-81
2024/01/04 09:27:02;;;;;;;3.10;0.90;;;11.10;50.30;;;;;;5011785;28;20227;-83
2024/01/04 09:29:29;;;;;;;2.22;0.90;;;11.20;49.60;;;;;;5019555;28;20434;-82
2024/01/04 09:31:57;;;;;;;3.10;0.85;;;11.20;49.30;;;;;;5031432;28;20198;-82
2024/01/04 09:34:24;;;;;;;3.63;1.52;;;11.30;49.60;;;;;;5029786;28;20654;-82
2024/01/04 09:36:51;;;;;;;4.38;1.10;;;11.30;48.40;;;;;;5030618;28;20197;-83
2024/01/04 09:39:20;;;;;;;3.13;1.10;;;11.40;48.40;;;;;;5030544;28;20215;-81
2024/01/04 09:41:48;;;;;;;3.17;1.47;;;11.40;48.10;;;;;;5030293;28;20222;-80
2024/01/04 09:44:24;;;;;;;3.40;1.10;;;11.50;48.00;;;;;;5029642;28;20469;-85
2024/01/04 09:46:55;;;;;;;3.80;1.20;;;11.60;48.00;;;;;;5025257;28;20465;-81
2024/01/04 09:49:21;;;;;;;2.77;1.10;;;11.70;47.40;;;;;;5029214;28;20910;-83
2024/01/04 09:51:52;;;;;;;2.00;0.80;;;11.80;47.40;;;;;;5023864;28;20512;-82
2024/01/04 09:54:21;;;;;;;4.50;1.40;;;11.80;47.20;;;;;;5026758;28;20431;-83
2024/01/04 09:56:50;;;;;;;3.90;0.90;;;11.90;47.70;;;;;;5029598;28;20429;-83
2024/01/04 09:59:22;;;;;;;2.33;1.30;;;12.00;46.40;;;;;;5025798;28;20922;-82
2024/01/04 10:01:49;;;;;;;2.50;1.13;;;12.10;46.20;;;;;;5026902;28;20836;-82
2024/01/04 10:04:23;;;;;;;2.83;1.00;;;12.40;45.90;;;;;;5026482;28;20465;-84
2024/01/04 10:06:57;;;;;;;2.83;0.90;;;12.80;44.60;;;;;;5029246;28;20432;-84
2024/01/04 10:09:29;;;;;;;2.43;0.90;;;12.90;44.10;;;;;;5028798;28;20438;-82
2024/01/04 10:12:05;;;;;;;2.40;0.90;;;12.90;44.20;;;;;;5031864;28;20426;-82
2024/01/04 10:14:34;;;;;;;3.70;1.50;;;12.90;44.50;;;;;;5028676;28;20443;-84
2024/01/04 10:17:01;;;;;;;4.90;1.40;;;13.10;44.60;;;;;;5024384;28;20517;-82
2024/01/04 10:19:30;;;;;;;3.90;1.23;;;13.60;43.60;;;;;;5029560;28;20430;-83
2024/01/04 10:22:02;;;;;;;2.80;1.20;;;14.00;41.40;;;;;;5029744;28;20434;-82
2024/01/04 10:24:37;;;;;;;3.60;0.90;;;14.40;41.80;;;;;;5025787;28;20975;-84
2024/01/04 10:27:05;;;;;;;3.40;0.70;;;14.80;40.70;;;;;;5029328;28;20754;-82
2024/01/04 10:29:35;;;;;;;2.50;0.97;;;15.20;40.30;;;;;;5032208;28;20520;-82
2024/01/04 10:32:04;;;;;;;4.30;2.47;;;15.70;39.00;;;;;;5033990;28;20425;-82
2024/01/04 10:34:34;;;;;;;2.83;0.97;;;16.10;38.30;;;;;;5029914;28;20561;-85
2024/01/04 10:37:11;;;;;;;2.43;0.80;;;16.40;36.90;;;;;;5032362;28;20434;-81
2024/01/04 10:39:38;;;;;;;3.13;0.70;;;16.50;36.10;;;;;;5031696;28;20475;-82
2024/01/04 10:42:08;;;;;;;2.20;1.00;;;16.50;36.10;;;;;;5034062;28;20430;-82
2024/01/04 10:44:36;;;;;;;2.20;0.90;;;16.30;35.70;;;;;;5033731;28;20485;-81
2024/01/04 10:47:04;;;;;;;2.50;1.00;;;16.30;36.00;;;;;;5034148;28;20543;-82
2024/01/04 10:49:31;;;;;;;2.20;1.10;;;16.10;35.70;;;;;;5012123;28;20433;-82
2024/01/04 10:52:00;;;;;;;4.17;0.93;;;16.10;36.10;;;;;;5032962;28;20441;-82
2024/01/04 10:54:32;;;;;;;3.63;0.90;;;16.20;36.00;;;;;;5033962;28;20470;-83
2024/01/04 10:57:00;;;;;;;4.73;0.90;;;16.40;36.00;;;;;;5033737;28;20431;-82
2024/01/04 10:59:29;;;;;;;2.30;1.33;;;16.20;35.50;;;;;;5032234;28;20465;-83
2024/01/04 11:01:58;;;;;;;2.60;1.03;;;15.90;36.40;;;;;;5027547;28;20440;-83
2024/01/04 11:04:26;;;;;;;1.80;0.63;;;15.80;36.40;;;;;;5028159;28;20521;-82
2024/01/04 11:06:53;;;;;;;2.87;0.80;;;15.50;36.30;;;;;;5030331;28;20442;-82
2024/01/04 11:09:41;;;;;;;4.13;0.70;;;15.10;37.10;;;;;;5033696;28;20836;-83
2024/01/04 11:12:11;;;;;;;4.53;1.30;;;14.70;38.40;;;;;;5034192;28;20433;-81
2024/01/04 11:14:39;;;;;;;2.80;1.00;;;15.00;39.10;;;;;;5032946;28;20466;-81
2024/01/04 11:17:38;;;;;;;1.80;0.70;;;15.10;39.10;;;;;;5034258;28;20469;-84
2024/01/04 11:20:17;;;;;;;2.73;1.23;;;14.90;39.80;;;;;;5032222;28;20446;-83
2024/01/04 11:23:05;;;;;;;2.47;0.80;;;14.50;42.40;;;;;;5021098;28;20489;-81
2024/01/04 11:25:51;;;;;;;2.00;0.87;;;14.40;42.80;;;;;;5024419;28;20835;-81
2024/01/04 11:28:25;;;;;;;2.10;0.90;;;14.10;43.00;;;;;;5026911;28;20948;-82
2024/01/04 11:30:53;;;;;;;2.80;0.90;;;13.90;43.20;;;;;;5033702;28;20432;-82
2024/01/04 11:33:28;;;;;;;1.80;0.67;;;13.70;43.80;;;;;;5031977;28;20437;-82
2024/01/04 11:35:55;;;;;;;2.30;1.17;;;13.50;43.70;;;;;;5032845;28;20430;-81
2024/01/04 11:38:25;;;;;;;2.47;0.67;;;13.40;43.50;;;;;;5033209;28;20512;-81
2024/01/04 11:40:54;;;;;;;5.53;1.17;;;13.10;43.60;;;;;;5033871;28;20426;-83
2024/01/04 11:43:24;;;;;;;3.63;0.97;;;13.00;44.10;;;;;;5033306;28;20433;-81
2024/01/04 11:45:54;;;;;;;2.00;0.70;;;12.80;44.10;;;;;;5032246;28;20478;-82
2024/01/04 11:48:23;;;;;;;2.63;0.90;;;12.70;44.40;;;;;;5033204;28;20430;-82
2024/01/04 11:50:52;;;;;;;3.90;0.97;;;12.60;44.20;;;;;;5033304;28;20944;-81
2024/01/04 11:53:19;;;;;;;2.03;0.83;;;12.70;44.80;;;;;;5031501;28;20487;-82
2024/01/04 11:55:46;;;;;;;2.10;0.83;;;13.50;44.90;;;;;;5030870;28;20907;-82
2024/01/04 11:58:15;;;;;;;3.40;0.87;;;14.20;43.50;;;;;;5033409;28;20521;-82
2024/01/04 12:00:48;;;;;;;2.20;0.97;;;14.70;41.30;;;;;;5033781;28;20434;-82
2024/01/04 12:03:17;;;;;;;3.20;1.50;;;14.80;40.30;;;;;;5033299;28;20517;-82
2024/01/04 12:05:54;;;;;;;4.47;1.10;;;14.50;40.30;;;;;;5029617;28;20517;-82
2024/01/04 12:08:24;;;;;;;4.20;0.93;;;14.10;42.30;;;;;;5013844;28;20496;-83
2024/01/04 12:10:53;;;;;;;2.17;0.77;;;13.70;44.60;;;;;;5021320;28;21012;-82
2024/01/04 12:13:20;;;;;;;3.50;1.43;;;13.80;45.70;;;;;;5032386;28;20438;-83
2024/01/04 12:15:47;;;;;;;3.27;0.97;;;14.00;45.90;;;;;;5033116;28;20524;-82
2024/01/04 12:18:14;;;;;;;2.90;0.73;;;14.10;45.80;;;;;;5032399;28;20933;-82
2024/01/04 12:20:41;;;;;;;4.37;0.80;;;14.20;45.70;;;;;;5021556;28;20463;-83
2024/01/04 12:23:10;;;;;;;2.03;0.70;;;14.20;46.20;;;;;;5013484;28;20439;-82
2024/01/04 12:25:46;;;;;;;2.00;0.83;;;14.20;46.40;;;;;;5013104;28;20483;-81
2024/01/04 12:28:13;;;;;;;2.10;0.80;;;13.90;46.60;;;;;;5019406;28;20453;-81
2024/01/04 12:30:41;;;;;;;2.50;0.93;;;13.70;47.40;;;;;;5032083;28;20434;-79
2024/01/04 12:33:09;;;;;;;3.37;1.17;;;13.70;48.50;;;;;;5023800;28;20882;-82
2024/01/04 12:35:38;;;;;;;2.43;0.90;;;14.30;49.50;;;;;;5032889;28;20437;-84
2024/01/04 12:38:08;;;;;;;2.10;0.80;;;14.50;48.00;;;;;;5027118;28;20446;-83
2024/01/04 12:40:40;;;;;;;2.50;0.90;;;14.60;48.10;;;;;;5028221;28;20438;-85
2024/01/04 12:43:08;;;;;;;3.43;1.10;;;14.60;46.90;;;;;;5032057;28;20539;-83
2024/01/04 12:45:36;;;;;;;2.50;1.10;;;14.30;46.90;;;;;;5032693;28;20482;-83
2024/01/04 12:48:03;;;;;;;5.03;1.00;;;14.30;47.50;;;;;;5031894;28;20461;-83
2024/01/04 12:50:30;;;;;;;2.00;0.70;;;14.60;46.90;;;;;;5032431;28;20523;-84
2024/01/04 12:53:03;;;;;;;2.93;1.30;;;14.60;47.30;;;;;;5031360;28;20438;-83
2024/01/04 12:55:31;;;;;;;2.97;0.97;;;14.70;46.30;;;;;;5032009;28;20507;-83
2024/01/04 12:58:00;;;;;;;2.80;1.20;;;14.50;44.80;;;;;;5027326;28;20530;-82